Time;durP1;ratioP1;P1;durP2;ratioP2;P2;SDS_P1;SDS_P2;PMS_P1;PMS_P2;Temp;Humidity;BMP_temperature;BMP_pressure;BME280_temperature;BME280_humidity;BME280_pressure;Samples;Min_cycle;Max_cycle;Signal;HPM_P1;HPM_P2
2022/03/15 00:01:32;;;;;;;16.50;11.70;;;;;;;9.96;59.60;101057.16;5114723;28;20051;-59
2022/03/15 00:03:59;;;;;;;19.88;13.13;;;;;;;9.97;59.49;101053.63;5114789;28;20046;-59
2022/03/15 00:06:25;;;;;;;17.90;11.95;;;;;;;9.97;59.17;101055.38;5114799;28;20135;-59
2022/03/15 00:08:52;;;;;;;21.63;12.30;;;;;;;9.97;59.31;101064.13;5115071;28;20044;-62
2022/03/15 00:11:19;;;;;;;17.33;12.18;;;;;;;9.95;59.20;101065.97;5114770;28;20055;-60
2022/03/15 00:13:47;;;;;;;21.10;12.30;;;;;;;9.94;59.40;101061.59;5096748;28;20551;-59
2022/03/15 00:16:14;;;;;;;19.05;12.15;;;;;;;9.91;59.26;101062.56;5114617;28;20086;-60
2022/03/15 00:18:42;;;;;;;19.55;12.70;;;;;;;9.88;59.64;101067.91;5113350;28;20054;-60
2022/03/15 00:21:10;;;;;;;17.80;12.05;;;;;;;9.86;59.83;101063.63;5113139;28;20059;-60
2022/03/15 00:23:38;;;;;;;18.65;13.15;;;;;;;9.84;59.88;101065.47;5114750;28;20096;-60
2022/03/15 00:26:05;;;;;;;25.42;13.35;;;;;;;9.82;60.17;101072.53;5114618;28;20480;-61
2022/03/15 00:28:32;;;;;;;19.98;12.93;;;;;;;9.83;60.13;101076.91;5114971;28;20043;-59
2022/03/15 00:30:59;;;;;;;20.55;12.50;;;;;;;9.82;60.09;101075.16;5114295;28;20475;-60
2022/03/15 00:33:26;;;;;;;18.80;12.25;;;;;;;9.82;60.29;101064.63;5114020;28;20051;-59
2022/03/15 00:35:53;;;;;;;20.13;12.52;;;;;;;9.82;60.57;101067.25;5114451;28;20050;-62
2022/03/15 00:38:22;;;;;;;20.42;12.88;;;;;;;9.83;60.54;101064.59;5114218;28;20082;-60
2022/03/15 00:40:49;;;;;;;20.10;12.40;;;;;;;9.85;60.47;101056.66;5114364;28;20054;-59
2022/03/15 00:43:16;;;;;;;22.67;13.02;;;;;;;9.86;60.20;101061.00;5113189;28;20082;-61
2022/03/15 00:45:43;;;;;;;17.98;12.50;;;;;;;9.86;60.19;101066.25;5114151;28;20044;-60
2022/03/15 00:48:09;;;;;;;20.25;12.98;;;;;;;9.85;60.07;101062.78;5113953;28;20066;-61
2022/03/15 00:50:41;;;;;;;22.52;14.07;;;;;;;9.83;60.49;101063.75;5114208;28;20138;-60
2022/03/15 00:53:09;;;;;;;18.48;12.80;;;;;;;9.82;60.40;101059.38;5114373;28;20067;-60
2022/03/15 00:55:37;;;;;;;17.20;12.07;;;;;;;9.81;60.51;101063.78;5112749;28;20052;-61
2022/03/15 00:58:05;;;;;;;18.27;13.10;;;;;;;9.81;60.66;101055.03;5112932;28;20098;-59
2022/03/15 01:00:34;;;;;;;21.10;12.95;;;;;;;9.81;60.64;101055.03;5113765;28;20044;-59
2022/03/15 01:03:01;;;;;;;17.30;12.15;;;;;;;9.82;60.68;101043.59;5113804;28;20492;-60
2022/03/15 01:05:29;;;;;;;19.35;13.68;;;;;;;9.83;60.71;101050.59;5113813;28;20043;-60
2022/03/15 01:07:58;;;;;;;21.48;14.23;;;;;;;9.84;60.67;101047.91;5111785;28;20043;-59
2022/03/15 01:10:25;;;;;;;21.52;12.85;;;;;;;9.84;60.56;101047.06;5113846;28;20405;-59
2022/03/15 01:12:52;;;;;;;23.23;13.30;;;;;;;9.86;60.73;101039.94;5113611;28;20051;-62
2022/03/15 01:15:20;;;;;;;18.77;12.50;;;;;;;9.86;60.64;101042.59;5113433;28;20112;-60
2022/03/15 01:17:46;;;;;;;22.65;14.18;;;;;;;9.88;60.73;101030.25;5113735;28;20063;-60
2022/03/15 01:20:13;;;;;;;20.27;12.68;;;;;;;9.89;60.56;101024.94;5113469;28;20058;-59
2022/03/15 01:22:40;;;;;;;17.80;12.18;;;;;;;9.91;60.81;101027.53;5113568;28;20079;-60
2022/03/15 01:25:08;;;;;;;20.63;12.68;;;;;;;9.93;60.56;101024.81;5112454;28;20154;-60
2022/03/15 01:27:35;;;;;;;20.50;12.52;;;;;;;9.95;60.29;101017.75;5112164;28;20054;-60
2022/03/15 01:30:03;;;;;;;18.92;12.48;;;;;;;9.95;60.58;101023.91;5111775;28;20051;-60
2022/03/15 01:32:30;;;;;;;15.80;12.15;;;;;;;9.96;60.41;101014.22;5112037;28;20066;-60
2022/03/15 01:34:57;;;;;;;21.63;12.88;;;;;;;9.96;60.63;101017.72;5113327;28;20134;-60
2022/03/15 01:37:24;;;;;;;20.58;12.43;;;;;;;9.98;60.43;101020.28;5113297;28;20043;-59
2022/03/15 01:39:51;;;;;;;21.83;13.52;;;;;;;9.98;60.26;101025.56;5112818;28;20052;-60
2022/03/15 01:42:17;;;;;;;19.23;13.38;;;;;;;9.98;60.42;101021.13;5113069;28;20075;-59
2022/03/15 01:44:46;;;;;;;20.23;12.80;;;;;;;9.97;60.57;101026.44;5113163;28;20405;-59
2022/03/15 01:47:13;;;;;;;18.55;13.05;;;;;;;9.97;60.45;101023.81;5111469;28;20044;-60
2022/03/15 01:49:41;;;;;;;18.10;12.43;;;;;;;9.95;60.18;101026.53;5111326;28;20044;-59
2022/03/15 01:52:15;;;;;;;20.65;13.30;;;;;;;9.92;60.97;101021.34;5112571;28;20545;-59
2022/03/15 01:54:43;;;;;;;21.25;13.75;;;;;;;9.92;60.44;101016.09;5112149;28;20130;-59
2022/03/15 01:57:13;;;;;;;19.13;12.90;;;;;;;9.90;60.33;101004.75;5111578;28;20057;-60
2022/03/15 01:59:40;;;;;;;19.83;13.38;;;;;;;9.86;60.23;101001.38;5112416;28;20051;-59
2022/03/15 02:02:07;;;;;;;19.90;12.57;;;;;;;9.85;60.18;101001.44;5112372;28;20055;-59
2022/03/15 02:04:36;;;;;;;18.10;12.43;;;;;;;9.82;60.57;101007.66;5112538;28;20480;-60
2022/03/15 02:07:06;;;;;;;24.65;12.90;;;;;;;9.80;60.65;101008.63;5111320;28;20059;-60
2022/03/15 02:09:33;;;;;;;18.80;12.13;;;;;;;9.79;60.36;101005.13;5110877;28;20508;-59
2022/03/15 02:11:59;;;;;;;19.67;12.00;;;;;;;9.80;60.54;101000.72;5111186;28;20426;-60
2022/03/15 02:14:26;;;;;;;20.13;13.02;;;;;;;9.80;60.62;100998.09;5112495;28;20048;-58
2022/03/15 02:16:53;;;;;;;21.52;12.05;;;;;;;9.80;60.66;100987.56;5112590;28;20085;-59
2022/03/15 02:19:22;;;;;;;17.52;12.10;;;;;;;9.81;60.82;100992.78;5110848;28;20047;-61
2022/03/15 02:21:50;;;;;;;19.27;12.27;;;;;;;9.83;60.47;100987.47;5112141;28;20062;-59
2022/03/15 02:24:17;;;;;;;21.95;11.90;;;;;;;9.85;60.45;100975.13;5111229;28;20059;-62
2022/03/15 02:26:44;;;;;;;16.95;12.02;;;;;;;9.87;60.31;100973.31;5112380;28;20055;-59
2022/03/15 02:29:10;;;;;;;16.70;11.75;;;;;;;9.88;60.23;100973.25;5111205;28;20081;-60
2022/03/15 02:31:39;;;;;;;18.02;12.45;;;;;;;9.89;60.33;100979.38;5112137;28;20608;-59
2022/03/15 02:34:06;;;;;;;18.98;13.02;;;;;;;9.90;60.36;100970.56;5111047;28;20554;-60
2022/03/15 02:36:33;;;;;;;18.23;12.93;;;;;;;9.91;60.35;100970.50;5111890;28;20059;-59
2022/03/15 02:38:59;;;;;;;20.10;12.80;;;;;;;9.91;60.23;100973.13;5112250;28;20047;-61
2022/03/15 02:41:27;;;;;;;19.60;12.57;;;;;;;9.92;60.18;100971.38;5111743;28;20483;-61
2022/03/15 02:43:56;;;;;;;19.00;12.07;;;;;;;9.92;60.23;100968.75;5110806;28;20044;-61
2022/03/15 02:46:30;;;;;;;18.90;12.45;;;;;;;9.89;60.84;100972.34;5094058;28;20067;-59
2022/03/15 02:48:57;;;;;;;19.73;13.95;;;;;;;9.90;60.20;100968.81;5111590;28;20090;-61
2022/03/15 02:51:25;;;;;;;18.13;13.18;;;;;;;9.88;60.05;100970.59;5110377;28;20054;-60
2022/03/15 02:53:54;;;;;;;20.85;13.88;;;;;;;9.87;60.06;100962.81;5112135;28;20052;-61
2022/03/15 02:56:21;;;;;;;18.95;13.77;;;;;;;9.83;60.07;100959.41;5110862;28;20047;-60
2022/03/15 02:58:48;;;;;;;20.67;13.18;;;;;;;9.82;60.03;100962.06;5110553;28;20101;-60
2022/03/15 03:01:15;;;;;;;18.42;13.20;;;;;;;9.75;59.97;100951.78;5111232;28;20047;-59
2022/03/15 03:03:43;;;;;;;19.98;14.02;;;;;;;9.73;60.24;100956.25;5110168;28;20049;-60
2022/03/15 03:06:09;;;;;;;23.00;14.65;;;;;;;9.68;60.22;100955.53;5111336;28;20043;-60
2022/03/15 03:08:36;;;;;;;21.63;13.68;;;;;;;9.64;60.21;100965.28;5111630;28;20063;-61
2022/03/15 03:11:03;;;;;;;22.65;14.55;;;;;;;9.60;60.32;100961.03;5111559;28;20051;-59
2022/03/15 03:13:30;;;;;;;21.23;16.00;;;;;;;9.57;60.47;100955.03;5111482;28;20054;-59
2022/03/15 03:15:59;;;;;;;23.10;14.27;;;;;;;9.53;60.79;100959.53;5111210;28;20051;-59
2022/03/15 03:18:31;;;;;;;20.52;14.32;;;;;;;9.51;60.46;100956.97;5110189;28;20053;-59
2022/03/15 03:20:58;;;;;;;19.30;13.48;;;;;;;9.50;60.42;100962.28;5110167;28;20058;-59
2022/03/15 03:23:25;;;;;;;22.55;13.43;;;;;;;9.49;60.75;100964.03;5110198;28;20062;-59
2022/03/15 03:25:51;;;;;;;22.05;14.20;;;;;;;9.49;60.77;100957.91;5111202;28;20047;-60
2022/03/15 03:28:18;;;;;;;22.08;14.95;;;;;;;9.48;60.78;100961.44;5110994;28;20108;-60
2022/03/15 03:30:46;;;;;;;22.98;14.57;;;;;;;9.49;60.73;100971.91;5110572;28;20097;-59
2022/03/15 03:33:15;;;;;;;28.60;14.88;;;;;;;9.48;60.87;100969.34;5111562;28;20127;-59
2022/03/15 03:35:43;;;;;;;20.45;14.32;;;;;;;9.46;60.55;100958.03;5110088;28;20043;-59
2022/03/15 03:38:12;;;;;;;23.15;14.35;;;;;;;9.44;60.84;100968.59;5109773;28;20043;-61
2022/03/15 03:40:42;;;;;;;24.67;14.93;;;;;;;9.43;60.84;100969.50;5110836;28;20093;-58
2022/03/15 03:43:10;;;;;;;20.35;13.95;;;;;;;9.40;60.79;100966.97;5109862;28;20094;-60
2022/03/15 03:45:38;;;;;;;22.40;13.88;;;;;;;9.37;60.89;100970.56;5109491;28;20478;-60
2022/03/15 03:48:06;;;;;;;20.23;12.63;;;;;;;9.37;60.72;100960.03;5111120;28;20047;-59
2022/03/15 03:50:34;;;;;;;19.77;13.38;;;;;;;9.36;60.73;100958.34;5109592;28;20043;-59
2022/03/15 03:53:02;;;;;;;18.63;12.73;;;;;;;9.38;60.80;100958.25;5109907;28;20073;-60
2022/03/15 03:55:29;;;;;;;17.38;12.07;;;;;;;9.40;60.54;100959.09;5109686;28;20051;-61
2022/03/15 03:57:56;;;;;;;23.20;11.68;;;;;;;9.41;60.61;100950.28;5110928;28;20047;-60
2022/03/15 04:00:22;;;;;;;17.20;12.32;;;;;;;9.44;60.74;100951.94;5110998;28;20047;-59
2022/03/15 04:02:50;;;;;;;25.23;12.52;;;;;;;9.45;60.49;100953.66;5111129;28;20048;-60
2022/03/15 04:05:20;;;;;;;17.17;12.75;;;;;;;9.46;60.50;100948.34;5110133;28;20057;-60
2022/03/15 04:07:47;;;;;;;17.95;11.73;;;;;;;9.47;60.57;100951.84;5109456;28;20051;-60
2022/03/15 04:10:15;;;;;;;17.38;12.18;;;;;;;9.49;60.34;100958.78;5110556;28;20051;-60
2022/03/15 04:12:43;;;;;;;17.52;12.85;;;;;;;9.49;60.40;100961.41;5109562;28;20051;-61
2022/03/15 04:15:10;;;;;;;21.63;12.45;;;;;;;9.49;60.30;100956.16;5110721;28;20051;-61
2022/03/15 04:17:37;;;;;;;16.65;12.10;;;;;;;9.49;60.33;100961.41;5109850;28;20641;-60
2022/03/15 04:20:05;;;;;;;15.35;12.00;;;;;;;9.49;60.46;100958.78;5110536;28;20044;-60
2022/03/15 04:22:32;;;;;;;17.92;12.52;;;;;;;9.49;60.25;100958.78;5109654;28;20096;-61
2022/03/15 04:24:58;;;;;;;18.83;12.95;;;;;;;9.48;60.15;100954.44;5109639;28;20064;-59
2022/03/15 04:27:28;;;;;;;19.80;12.30;;;;;;;9.47;60.37;100955.34;5110519;28;20485;-61
2022/03/15 04:29:54;;;;;;;18.52;12.23;;;;;;;9.46;59.95;100958.03;5110629;28;20044;-60
2022/03/15 04:32:21;;;;;;;20.17;12.85;;;;;;;9.44;60.16;100955.44;5109592;28;20126;-59
2022/03/15 04:34:47;;;;;;;21.02;12.02;;;;;;;9.43;60.19;100958.13;5110699;28;20280;-61
2022/03/15 04:37:14;;;;;;;17.92;13.18;;;;;;;9.40;60.20;100948.56;5109105;28;20401;-60
2022/03/15 04:39:41;;;;;;;22.90;13.07;;;;;;;9.39;60.37;100949.50;5109171;28;20056;-59
2022/03/15 04:42:08;;;;;;;18.90;12.55;;;;;;;9.37;60.41;100956.53;5110390;28;20083;-62
2022/03/15 04:44:35;;;;;;;18.70;13.20;;;;;;;9.35;60.35;100955.75;5114542;27;20047;-60
2022/03/15 04:47:03;;;;;;;20.35;12.85;;;;;;;9.32;60.48;100954.09;5114848;28;20055;-59
2022/03/15 04:49:31;;;;;;;24.17;12.73;;;;;;;9.31;60.49;100949.72;5113175;28;20059;-61
2022/03/15 04:51:58;;;;;;;21.73;13.35;;;;;;;9.28;60.33;100944.59;5112183;28;20400;-60
2022/03/15 04:54:24;;;;;;;16.50;11.95;;;;;;;9.25;60.35;100944.66;5113966;28;20040;-60
2022/03/15 04:56:51;;;;;;;20.58;12.82;;;;;;;9.23;60.45;100952.59;5113934;28;20043;-58
2022/03/15 04:59:18;;;;;;;19.55;12.95;;;;;;;9.21;60.56;100951.81;5113723;28;20180;-58
2022/03/15 05:01:45;;;;;;;19.33;12.10;;;;;;;9.19;60.67;100950.97;5112167;28;20496;-59
2022/03/15 05:04:12;;;;;;;18.40;12.00;;;;;;;9.18;60.75;100944.00;5113724;28;20043;-60
2022/03/15 05:06:39;;;;;;;17.55;12.73;;;;;;;9.17;60.55;100949.31;5113762;28;20462;-60
2022/03/15 05:09:06;;;;;;;23.40;12.15;;;;;;;9.15;60.73;100949.34;5113629;28;20056;-63
2022/03/15 05:11:34;;;;;;;18.63;11.95;;;;;;;9.13;60.97;100949.41;5113736;28;20051;-60
2022/03/15 05:14:00;;;;;;;20.13;12.50;;;;;;;9.13;60.81;100951.19;5095768;28;20516;-60
2022/03/15 05:16:28;;;;;;;19.38;12.75;;;;;;;9.12;60.78;100952.94;5113883;28;20097;-61
2022/03/15 05:18:55;;;;;;;22.17;12.38;;;;;;;9.10;60.78;100957.41;5112290;28;20109;-61
2022/03/15 05:21:25;;;;;;;16.77;12.02;;;;;;;9.11;60.90;100956.47;5113317;28;20572;-59
2022/03/15 05:23:53;;;;;;;18.85;11.60;;;;;;;9.11;60.90;100960.88;5113886;28;20047;-59
2022/03/15 05:26:21;;;;;;;22.75;11.68;;;;;;;9.10;60.59;100948.66;5113109;28;20040;-62
2022/03/15 05:28:49;;;;;;;19.20;11.88;;;;;;;9.10;60.78;100948.66;5111586;28;20051;-60
2022/03/15 05:31:20;;;;;;;21.17;12.32;;;;;;;9.10;61.32;100946.03;5112548;28;20492;-60
2022/03/15 05:33:48;;;;;;;15.38;10.55;;;;;;;9.11;60.51;100953.84;5111604;28;20066;-59
2022/03/15 05:36:15;;;;;;;17.13;11.40;;;;;;;9.12;60.80;100949.44;5111712;28;20044;-59
2022/03/15 05:38:42;;;;;;;17.73;11.63;;;;;;;9.15;60.88;100951.13;5112831;28;20060;-60
2022/03/15 05:41:09;;;;;;;18.75;12.02;;;;;;;9.16;60.77;100953.69;5112601;28;20055;-59
2022/03/15 05:43:51;;;;;;;18.67;11.90;;;;;;;9.17;60.67;100946.69;5112560;28;20055;-60
2022/03/15 05:46:18;;;;;;;17.33;11.05;;;;;;;9.16;60.65;100951.06;5112809;28;20191;-61
2022/03/15 05:48:44;;;;;;;22.63;11.70;;;;;;;9.19;60.45;100947.50;5111390;28;20052;-58
2022/03/15 05:51:11;;;;;;;21.00;11.57;;;;;;;9.19;60.60;100958.03;5112348;28;20044;-59
2022/03/15 05:53:37;;;;;;;20.17;11.75;;;;;;;9.21;60.63;100953.56;5112012;28;20055;-60
2022/03/15 05:56:04;;;;;;;16.10;11.55;;;;;;;9.21;60.61;100946.53;5112378;28;20101;-60
2022/03/15 05:58:31;;;;;;;20.00;11.15;;;;;;;9.23;60.40;100952.59;5111049;28;20048;-59
2022/03/15 06:00:58;;;;;;;17.08;11.32;;;;;;;9.25;60.40;100949.94;5112266;28;20056;-60
2022/03/15 06:03:27;;;;;;;15.95;10.85;;;;;;;9.27;60.68;100945.47;5111917;28;20048;-60
2022/03/15 06:05:54;;;;;;;20.27;10.70;;;;;;;9.30;60.71;100942.75;5112327;28;20423;-60
2022/03/15 06:08:21;;;;;;;17.33;11.23;;;;;;;9.33;60.37;100936.53;5112227;28;20442;-58
2022/03/15 06:10:47;;;;;;;18.83;10.75;;;;;;;9.35;60.58;100930.31;5111710;27;20097;-59
2022/03/15 06:13:14;;;;;;;17.05;11.43;;;;;;;9.39;60.53;100937.19;5111998;28;20055;-58
2022/03/15 06:15:40;;;;;;;16.92;10.43;;;;;;;9.42;60.60;100930.97;5112262;28;20047;-61
2022/03/15 06:18:07;;;;;;;20.75;10.18;;;;;;;9.46;60.44;100934.38;5112154;28;20097;-60
2022/03/15 06:20:35;;;;;;;21.80;10.55;;;;;;;9.50;60.45;100931.56;5111791;28;20181;-60
2022/03/15 06:23:02;;;;;;;19.50;9.82;;;;;;;9.52;60.30;100926.28;5110580;28;20498;-58
2022/03/15 06:25:30;;;;;;;16.27;9.80;;;;;;;9.55;60.23;100930.56;5111843;28;20067;-61
2022/03/15 06:27:57;;;;;;;14.23;9.57;;;;;;;9.58;60.21;100931.34;5110738;28;20056;-61
2022/03/15 06:30:24;;;;;;;15.90;8.60;;;;;;;9.62;60.13;100926.81;5110363;28;20115;-60
2022/03/15 06:32:51;;;;;;;16.23;9.23;;;;;;;9.66;60.46;100928.44;5110472;28;20108;-58
2022/03/15 06:35:19;;;;;;;12.50;9.00;;;;;;;9.71;60.47;100931.75;5111695;28;20051;-58
2022/03/15 06:37:48;;;;;;;13.85;9.00;;;;;;;9.75;60.88;100927.25;5111686;28;20058;-58
2022/03/15 06:40:25;;;;;;;14.35;8.70;;;;;;;9.81;60.54;100936.69;5111358;28;20137;-61
2022/03/15 06:42:53;;;;;;;16.80;9.30;;;;;;;9.85;60.29;100931.28;5110414;28;20039;-63
2022/03/15 06:45:20;;;;;;;15.55;9.38;;;;;;;9.91;60.44;100935.47;5110215;28;20047;-60
2022/03/15 06:47:47;;;;;;;15.73;10.25;;;;;;;9.96;60.64;100930.91;5111375;28;20513;-61
2022/03/15 06:50:14;;;;;;;15.75;9.90;;;;;;;10.00;60.41;100932.53;5109574;28;20511;-60
2022/03/15 06:52:42;;;;;;;18.25;10.18;;;;;;;10.04;60.33;100931.50;5110084;28;20086;-59
2022/03/15 06:55:10;;;;;;;16.40;9.30;;;;;;;10.10;60.28;100926.91;5110349;28;20051;-62
2022/03/15 06:57:37;;;;;;;16.15;10.45;;;;;;;10.14;60.15;100918.00;5110281;28;20540;-60
2022/03/15 07:00:06;;;;;;;17.60;10.27;;;;;;;10.19;60.17;100918.69;5109744;28;20483;-59
2022/03/15 07:02:33;;;;;;;16.60;9.52;;;;;;;10.24;60.13;100919.38;5109958;28;20063;-59
2022/03/15 07:05:00;;;;;;;14.10;9.35;;;;;;;10.29;59.94;100914.78;5110483;28;20423;-61
2022/03/15 07:07:27;;;;;;;18.63;10.85;;;;;;;10.33;60.27;100920.81;5109819;28;20124;-59
2022/03/15 07:09:54;;;;;;;14.68;9.18;;;;;;;10.38;60.09;100918.00;5110914;28;20039;-61
2022/03/15 07:12:22;;;;;;;17.92;9.60;;;;;;;10.42;60.21;100911.69;5111077;28;20040;-60
2022/03/15 07:14:49;;;;;;;13.77;9.35;;;;;;;10.46;60.07;100905.44;5109719;28;20412;-59
2022/03/15 07:17:16;;;;;;;14.95;9.07;;;;;;;10.51;59.97;100918.44;5110848;28;20446;-62
2022/03/15 07:19:43;;;;;;;13.98;8.70;;;;;;;10.54;59.73;100911.28;5110724;28;20058;-60
2022/03/15 07:22:09;;;;;;;14.95;9.13;;;;;;;10.58;59.79;100905.91;5111195;28;20051;-61
2022/03/15 07:24:36;;;;;;;18.80;9.00;;;;;;;10.63;59.77;100898.69;5110935;28;20048;-61
2022/03/15 07:27:03;;;;;;;15.85;9.45;;;;;;;10.66;59.63;100894.13;5110927;28;20060;-61
2022/03/15 07:29:30;;;;;;;14.10;8.48;;;;;;;10.70;59.73;100892.25;5110932;28;20094;-58
2022/03/15 07:31:57;;;;;;;13.52;8.88;;;;;;;10.74;59.62;100888.59;5110440;28;20052;-60
2022/03/15 07:34:24;;;;;;;14.50;9.25;;;;;;;10.77;59.60;100888.44;5110492;28;20048;-58
2022/03/15 07:36:50;;;;;;;12.15;7.97;;;;;;;10.81;59.31;100892.69;5110784;28;20104;-60
2022/03/15 07:39:17;;;;;;;13.05;8.70;;;;;;;10.86;59.57;100879.34;5110598;28;20058;-59
2022/03/15 07:41:46;;;;;;;17.38;9.25;;;;;;;10.90;59.55;100875.66;5111067;28;20048;-62
2022/03/15 07:44:13;;;;;;;13.98;8.55;;;;;;;10.94;59.20;100879.88;5109504;28;20043;-60
2022/03/15 07:46:48;;;;;;;13.95;8.50;;;;;;;10.99;59.33;100884.13;5109333;28;20411;-59
2022/03/15 07:49:20;;;;;;;14.13;8.25;;;;;;;11.02;59.26;100873.44;5109335;28;20044;-60
2022/03/15 07:51:49;;;;;;;12.03;7.70;;;;;;;11.10;59.20;100870.50;5110550;28;20055;-60
2022/03/15 07:54:16;;;;;;;14.93;8.00;;;;;;;11.16;59.23;100880.78;5110719;28;20048;-59
2022/03/15 07:56:43;;;;;;;13.32;8.70;;;;;;;11.20;59.42;100875.31;5109251;28;20453;-60
2022/03/15 07:59:10;;;;;;;15.82;8.45;;;;;;;11.25;59.25;100869.84;5110493;28;20644;-64
2022/03/15 08:01:37;;;;;;;12.13;7.50;;;;;;;11.30;59.03;100870.53;5109081;28;20047;-61
2022/03/15 08:04:04;;;;;;;13.02;7.68;;;;;;;11.36;59.15;100879.09;5110114;28;20478;-62
2022/03/15 08:06:31;;;;;;;11.10;7.43;;;;;;;11.40;59.02;100878.88;5109959;28;20040;-60
2022/03/15 08:08:59;;;;;;;16.02;7.43;;;;;;;11.46;59.03;100883.91;5110117;28;20097;-60
2022/03/15 08:11:26;;;;;;;12.85;7.15;;;;;;;11.52;58.87;100871.38;5108747;28;20063;-60
2022/03/15 08:13:53;;;;;;;12.95;7.47;;;;;;;11.55;58.60;100872.09;5110335;28;20431;-62
2022/03/15 08:16:21;;;;;;;14.65;8.10;;;;;;;11.59;58.62;100873.69;5110412;28;20112;-61
2022/03/15 08:18:50;;;;;;;12.75;7.88;;;;;;;11.65;58.62;100876.97;5112966;28;20044;-59
2022/03/15 08:21:17;;;;;;;13.45;8.30;;;;;;;11.66;58.65;100869.00;5114366;28;20450;-59
2022/03/15 08:23:44;;;;;;;15.98;8.52;;;;;;;11.70;58.42;100872.38;5114409;28;20048;-61
2022/03/15 08:26:12;;;;;;;14.95;9.07;;;;;;;11.72;58.41;100867.88;5112933;28;20044;-62
2022/03/15 08:28:38;;;;;;;14.20;8.15;;;;;;;11.76;58.40;100871.22;5113039;28;20055;-60
2022/03/15 08:31:05;;;;;;;13.85;8.02;;;;;;;11.78;58.48;100867.59;5113635;28;20545;-62
2022/03/15 08:33:32;;;;;;;14.55;8.20;;;;;;;11.81;58.49;100864.00;5112824;28;20566;-60
2022/03/15 08:35:59;;;;;;;15.02;8.15;;;;;;;11.85;58.28;100863.78;5113807;28;20051;-61
2022/03/15 08:38:29;;;;;;;17.27;8.88;;;;;;;11.89;58.28;100861.00;5114055;28;20100;-62
2022/03/15 08:40:56;;;;;;;15.60;7.75;;;;;;;11.93;58.08;100863.41;5113893;28;20438;-62
2022/03/15 08:43:24;;;;;;;14.55;8.88;;;;;;;11.98;58.05;100860.59;5112283;28;20135;-64
2022/03/15 08:45:52;;;;;;;13.98;8.80;;;;;;;12.01;57.92;100857.81;5112477;28;20407;-59
2022/03/15 08:48:20;;;;;;;17.20;9.13;;;;;;;12.05;57.86;100856.78;5112393;28;20739;-60
2022/03/15 08:50:46;;;;;;;11.95;8.25;;;;;;;12.10;57.98;100862.69;5112949;28;20052;-60
2022/03/15 08:53:14;;;;;;;18.20;9.55;;;;;;;12.15;57.89;100854.56;5113534;28;20065;-60
2022/03/15 08:55:41;;;;;;;17.52;8.98;;;;;;;12.20;57.77;100857.88;5112645;28;20043;-60
2022/03/15 08:58:09;;;;;;;16.05;8.43;;;;;;;12.24;57.72;100856.78;5112544;28;20046;-60
2022/03/15 09:00:35;;;;;;;14.27;8.95;;;;;;;12.31;57.79;100856.50;5112209;28;20052;-60
2022/03/15 09:03:03;;;;;;;14.25;8.93;;;;;;;12.36;57.81;100855.34;5113569;28;20047;-65
2022/03/15 09:05:29;;;;;;;16.52;9.55;;;;;;;12.43;57.47;100860.34;5113519;28;20146;-59
2022/03/15 09:07:58;;;;;;;15.57;9.23;;;;;;;12.48;57.23;100866.25;5113626;28;20048;-61
2022/03/15 09:10:25;;;;;;;16.63;9.50;;;;;;;12.52;57.28;100867.81;5111970;28;20055;-59
2022/03/15 09:12:53;;;;;;;17.95;9.40;;;;;;;12.56;57.14;100858.81;5113624;28;20048;-59
2022/03/15 09:15:23;;;;;;;16.80;9.48;;;;;;;12.59;56.83;100861.31;5112118;28;20442;-59
2022/03/15 09:17:49;;;;;;;17.20;9.45;;;;;;;12.64;56.95;100854.03;5112077;28;20056;-59
2022/03/15 09:20:25;;;;;;;21.30;9.98;;;;;;;12.69;56.76;100858.25;5113165;28;20043;-59
2022/03/15 09:22:52;;;;;;;18.20;9.73;;;;;;;12.73;56.73;100855.38;5111957;28;20087;-59
2022/03/15 09:25:19;;;;;;;14.90;9.02;;;;;;;12.76;56.77;100849.94;5113104;28;20063;-59
2022/03/15 09:27:47;;;;;;;14.73;9.15;;;;;;;12.80;56.76;100853.31;5112402;27;20457;-59
2022/03/15 09:30:14;;;;;;;14.93;9.05;;;;;;;12.84;56.38;100849.59;5111653;28;20052;-60
2022/03/15 09:32:41;;;;;;;13.88;8.32;;;;;;;12.88;56.19;100847.63;5111567;28;20400;-62
2022/03/15 09:35:09;;;;;;;13.88;8.75;;;;;;;12.90;56.26;100840.50;5112802;28;20048;-59
2022/03/15 09:37:36;;;;;;;11.50;7.97;;;;;;;12.93;56.28;100842.97;5113076;28;20091;-59
2022/03/15 09:40:09;;;;;;;15.07;8.60;;;;;;;12.96;55.93;100840.19;5113102;28;20062;-60
2022/03/15 09:42:37;;;;;;;13.77;8.63;;;;;;;12.99;55.84;100839.19;5111265;28;20146;-60
2022/03/15 09:45:05;;;;;;;14.40;8.57;;;;;;;13.01;55.92;100842.63;5112591;28;20048;-63
2022/03/15 09:47:35;;;;;;;13.68;8.52;;;;;;;13.05;55.79;100832.72;5111329;28;20562;-61
2022/03/15 09:50:06;;;;;;;16.08;8.88;;;;;;;13.08;55.43;100833.44;5112496;28;20054;-60
2022/03/15 09:52:34;;;;;;;16.85;8.35;;;;;;;13.15;55.59;100833.97;5111320;28;20043;-62
2022/03/15 09:55:03;;;;;;;12.77;7.60;;;;;;;13.19;55.63;100822.31;5112789;28;20105;-61
2022/03/15 09:57:31;;;;;;;13.13;8.07;;;;;;;13.25;55.41;100823.78;5111487;28;20062;-61
2022/03/15 10:00:01;;;;;;;12.70;7.45;;;;;;;13.27;54.74;100819.28;5112252;27;20052;-60
2022/03/15 10:02:28;;;;;;;14.27;7.82;;;;;;;13.35;55.02;100814.44;5112458;28;20048;-60
2022/03/15 10:05:00;;;;;;;14.57;8.10;;;;;;;13.40;54.93;100811.56;5112483;28;20047;-60
2022/03/15 10:07:26;;;;;;;12.10;8.02;;;;;;;13.46;54.68;100810.41;5112056;28;20059;-60
2022/03/15 10:09:53;;;;;;;13.95;9.40;;;;;;;13.51;54.09;100805.75;5112148;28;20552;-59
2022/03/15 10:12:20;;;;;;;15.00;9.88;;;;;;;13.54;54.13;100800.31;5112064;28;20461;-60
2022/03/15 10:14:48;;;;;;;19.10;10.98;;;;;;;13.56;53.64;100801.06;5111960;28;20047;-59
2022/03/15 10:17:16;;;;;;;16.10;11.38;;;;;;;13.61;53.61;100795.53;5110865;28;20054;-59
2022/03/15 10:19:53;;;;;;;19.73;12.30;;;;;;;13.60;53.12;100792.03;5111610;28;20057;-59
2022/03/15 10:22:22;;;;;;;15.65;11.57;;;;;;;13.64;53.19;100787.44;5110677;28;20062;-61
2022/03/15 10:24:50;;;;;;;14.73;11.00;;;;;;;13.66;53.18;100786.44;5110493;28;20047;-59
2022/03/15 10:27:17;;;;;;;15.15;10.88;;;;;;;13.67;53.19;100779.31;5110505;28;20043;-59
2022/03/15 10:29:46;;;;;;;16.77;11.30;;;;;;;13.70;53.29;100773.00;5110437;28;20048;-60
2022/03/15 10:32:14;;;;;;;15.38;10.73;;;;;;;13.69;53.33;100769.53;5110603;28;20062;-61
2022/03/15 10:34:41;;;;;;;20.15;10.30;;;;;;;13.73;53.17;100768.44;5111350;28;20048;-59
2022/03/15 10:37:08;;;;;;;15.63;10.32;;;;;;;13.75;53.10;100761.25;5111700;28;20055;-61
2022/03/15 10:39:37;;;;;;;16.60;9.77;;;;;;;13.76;52.86;100762.94;5111206;28;20051;-60
2022/03/15 10:42:07;;;;;;;13.55;9.63;;;;;;;13.81;53.17;100768.88;5093151;28;20066;-61
2022/03/15 10:44:38;;;;;;;17.70;10.32;;;;;;;13.85;52.95;100755.44;5111490;28;20128;-60
2022/03/15 10:47:18;;;;;;;14.43;8.85;;;;;;;13.87;52.97;100750.94;5110181;28;20054;-61
2022/03/15 10:49:59;;;;;;;14.70;9.00;;;;;;;13.88;52.83;100752.66;5111546;28;20058;-60
2022/03/15 10:52:41;;;;;;;16.67;8.60;;;;;;;13.91;52.58;100748.03;5111455;27;20054;-62
2022/03/15 10:55:24;;;;;;;13.00;8.60;;;;;;;13.95;52.18;100754.03;5111729;28;20058;-59
2022/03/15 10:57:54;;;;;;;11.38;8.30;;;;;;;14.02;53.01;100741.31;5111507;28;20476;-60
2022/03/15 11:00:26;;;;;;;12.00;7.95;;;;;;;14.07;52.82;100736.59;5110381;28;20384;-60
2022/03/15 11:02:55;;;;;;;15.77;8.63;;;;;;;14.15;52.74;100734.38;5111724;28;20407;-60
2022/03/15 11:05:36;;;;;;;10.55;7.78;;;;;;;14.18;52.44;100739.50;5110214;28;20786;-60
2022/03/15 11:08:05;;;;;;;16.17;8.50;;;;;;;14.31;52.98;100739.66;5109948;28;20492;-62
2022/03/15 11:10:32;;;;;;;15.18;8.88;;;;;;;14.39;52.78;100733.91;5110954;28;20511;-60
2022/03/15 11:13:06;;;;;;;16.15;8.63;;;;;;;14.48;52.26;100734.31;5111009;28;20104;-61
2022/03/15 11:15:39;;;;;;;15.00;8.68;;;;;;;14.55;52.32;100727.72;5111468;28;20051;-60
2022/03/15 11:18:09;;;;;;;12.23;8.38;;;;;;;14.62;52.19;100730.88;5111618;28;20056;-59
2022/03/15 11:20:38;;;;;;;17.63;8.63;;;;;;;14.68;51.74;100730.50;5109677;28;20056;-61